Terminal Aerodrome Forecast
Issued by NWS

Home | Current Version | Previous Version | Text Only | Print | Product List | Glossary On
Versions: 1 2 3 4 5 6 7 8 9 10 11 12 13
641
FTUS43 KAPX 251725
TAFAPN
TAF
KAPN 251725Z 2518/2618 VRB05KT P6SM SCT070 BKN250
     FM260100 VRB03KT P6SM SCT250
     FM261500 21006KT P6SM FEW070 SCT200=

USA.gov is the U.S. government's official web portal to all federal, state and local government web resources and services.